Time;durP1;ratioP1;P1;durP2;ratioP2;P2;SDS_P1;SDS_P2;PMS_P1;PMS_P2;Temp;Humidity;BMP_temperature;BMP_pressure;BME280_temperature;BME280_humidity;BME280_pressure;Samples;Min_cycle;Max_cycle;Signal;HPM_P1;HPM_P2
2021/10/28 00:12:13;;;;;;;20.67;12.68;;;;;;;;;;5054896;28;20121;-73
2021/10/28 00:12:22;;;;;;;23.73;13.43;;;;;;;;;;5054981;28;20044;-74
2021/10/28 00:14:59;;;;;;;29.20;14.75;;;;;;;;;;5036396;28;20028;-74
2021/10/28 00:20:24;;;;;;;31.13;16.00;;;;;;;;;;5020584;28;20044;-73
2021/10/28 00:22:50;;;;;;;22.63;12.95;;;;;;;;;;5054601;28;20025;-73
2021/10/28 00:25:17;;;;;;;24.25;12.88;;;;;;;;;;5055235;28;20377;-73
2021/10/28 00:27:43;;;;;;;21.25;12.48;;;;;;;;;;5053967;28;20033;-73
2021/10/28 00:30:10;;;;;;;21.33;12.57;;;;;;;;;;5054248;28;20024;-72
2021/10/28 00:32:36;;;;;;;19.55;12.15;;;;;;;;;;5054507;28;20035;-73
2021/10/28 00:35:03;;;;;;;19.52;11.35;;;;;;;;;;5053944;28;20021;-73
2021/10/28 00:37:29;;;;;;;24.77;11.77;;;;;;;;;;5054825;28;20028;-73
2021/10/28 00:39:56;;;;;;;20.88;12.77;;;;;;;;;;5054239;28;20043;-73
2021/10/28 00:42:22;;;;;;;18.58;11.32;;;;;;;;;;5053977;28;20462;-73
2021/10/28 00:44:48;;;;;;;22.35;11.77;;;;;;;;;;5054006;28;20416;-73
2021/10/28 00:47:15;;;;;;;19.08;11.40;;;;;;;;;;5054092;28;20037;-73
2021/10/28 00:49:41;;;;;;;24.15;11.10;;;;;;;;;;5053622;28;20025;-73
2021/10/28 00:52:07;;;;;;;21.88;12.23;;;;;;;;;;5054238;28;20059;-73
2021/10/28 00:54:33;;;;;;;18.23;12.02;;;;;;;;;;5053891;28;20024;-73
2021/10/28 00:57:00;;;;;;;18.65;10.50;;;;;;;;;;5053610;28;20048;-73
2021/10/28 00:59:26;;;;;;;20.65;12.45;;;;;;;;;;5054103;28;20037;-73
2021/10/28 01:01:53;;;;;;;18.77;11.02;;;;;;;;;;5035604;28;20063;-73
2021/10/28 01:04:19;;;;;;;21.10;13.23;;;;;;;;;;5053833;28;20021;-73
2021/10/28 01:06:45;;;;;;;23.67;13.32;;;;;;;;;;5053502;28;20451;-73
2021/10/28 01:09:12;;;;;;;23.00;13.10;;;;;;;;;;5053435;28;20481;-73
2021/10/28 01:11:40;;;;;;;19.92;12.90;;;;;;;;;;5035760;28;20107;-74
2021/10/28 01:14:06;;;;;;;25.70;14.68;;;;;;;;;;5053819;28;20095;-73
2021/10/28 01:16:34;;;;;;;27.67;15.30;;;;;;;;;;5034721;28;20503;-73
2021/10/28 01:19:00;;;;;;;25.95;15.75;;;;;;;;;;5053504;28;20029;-73
2021/10/28 01:21:26;;;;;;;25.50;15.13;;;;;;;;;;5053482;28;20532;-73
2021/10/28 01:23:52;;;;;;;22.77;12.95;;;;;;;;;;5035248;28;20032;-73
2021/10/28 01:26:19;;;;;;;17.33;10.60;;;;;;;;;;5053260;28;20031;-73
2021/10/28 01:28:56;;;;;;;21.60;11.60;;;;;;;;;;5053474;28;20060;-73
2021/10/28 01:31:23;;;;;;;20.42;11.45;;;;;;;;;;5053041;28;20068;-73
2021/10/28 01:33:49;;;;;;;17.45;10.02;;;;;;;;;;5053262;28;20024;-73
2021/10/28 01:36:17;;;;;;;21.40;10.75;;;;;;;;;;5053168;28;20025;-73
2021/10/28 01:38:43;;;;;;;18.40;9.52;;;;;;;;;;5052862;28;20021;-73
2021/10/28 01:41:10;;;;;;;18.67;10.07;;;;;;;;;;5053253;28;20098;-73
2021/10/28 01:43:36;;;;;;;19.65;10.02;;;;;;;;;;5053121;28;20114;-73
2021/10/28 01:46:04;;;;;;;21.85;10.30;;;;;;;;;;5052736;28;20545;-73
2021/10/28 01:48:31;;;;;;;19.77;11.15;;;;;;;;;;5053076;28;20400;-73
2021/10/28 01:50:57;;;;;;;19.25;10.60;;;;;;;;;;5052699;28;20106;-73
2021/10/28 01:53:23;;;;;;;23.10;11.90;;;;;;;;;;5053029;28;20389;-73
2021/10/28 01:55:50;;;;;;;18.02;9.95;;;;;;;;;;5052973;28;20021;-73
2021/10/28 01:58:21;;;;;;;19.45;11.52;;;;;;;;;;5052581;28;20096;-73
2021/10/28 02:00:48;;;;;;;27.95;13.27;;;;;;;;;;5052883;28;20021;-73
2021/10/28 02:03:14;;;;;;;24.40;18.45;;;;;;;;;;5052853;28;20021;-73
2021/10/28 02:05:40;;;;;;;22.88;15.35;;;;;;;;;;5052148;28;20392;-73
2021/10/28 02:08:06;;;;;;;19.48;12.70;;;;;;;;;;5052752;28;20044;-73
2021/10/28 02:10:33;;;;;;;18.58;12.85;;;;;;;;;;5052822;28;20072;-73
2021/10/28 02:13:00;;;;;;;23.80;12.80;;;;;;;;;;5052586;28;20083;-73
2021/10/28 02:15:26;;;;;;;21.63;13.48;;;;;;;;;;5052805;28;20041;-73
2021/10/28 02:17:53;;;;;;;21.77;13.10;;;;;;;;;;5052796;28;20427;-73
2021/10/28 02:20:19;;;;;;;24.15;12.35;;;;;;;;;;5052283;28;20159;-73
2021/10/28 02:22:46;;;;;;;21.67;11.85;;;;;;;;;;5053283;28;20462;-73
2021/10/28 02:25:12;;;;;;;19.65;11.55;;;;;;;;;;5052553;28;20366;-72
2021/10/28 02:27:40;;;;;;;23.10;13.15;;;;;;;;;;5052908;28;20072;-73
2021/10/28 02:30:07;;;;;;;18.58;11.25;;;;;;;;;;5056598;28;20378;-72
2021/10/28 02:32:33;;;;;;;17.70;10.75;;;;;;;;;;5056580;28;20025;-72
2021/10/28 02:35:00;;;;;;;21.77;11.48;;;;;;;;;;5055997;28;20027;-73
2021/10/28 02:37:28;;;;;;;20.38;13.20;;;;;;;;;;5056268;28;20025;-73
2021/10/28 02:39:54;;;;;;;24.88;13.10;;;;;;;;;;5039038;28;20551;-73
2021/10/28 02:42:21;;;;;;;26.98;15.05;;;;;;;;;;5056253;28;20025;-72
2021/10/28 02:44:47;;;;;;;24.30;15.60;;;;;;;;;;5038720;28;20021;-73
2021/10/28 02:47:14;;;;;;;21.45;13.88;;;;;;;;;;5056137;28;20482;-73
2021/10/28 02:49:40;;;;;;;20.75;13.13;;;;;;;;;;5038521;28;20025;-73
2021/10/28 02:52:07;;;;;;;21.02;12.85;;;;;;;;;;5056342;28;20053;-73
2021/10/28 02:54:34;;;;;;;18.63;11.38;;;;;;;;;;5055978;28;20057;-73
2021/10/28 02:57:01;;;;;;;22.00;12.77;;;;;;;;;;5056169;28;20059;-73
2021/10/28 02:59:27;;;;;;;18.65;11.55;;;;;;;;;;5056108;28;20021;-72
2021/10/28 03:01:57;;;;;;;19.63;11.55;;;;;;;;;;5055742;28;20029;-73
2021/10/28 03:04:24;;;;;;;19.13;11.13;;;;;;;;;;5056147;28;20017;-73
2021/10/28 03:06:51;;;;;;;22.45;13.77;;;;;;;;;;5055874;28;20077;-73
2021/10/28 03:09:18;;;;;;;22.02;11.48;;;;;;;;;;5055639;28;20025;-73
2021/10/28 03:11:47;;;;;;;21.58;12.13;;;;;;;;;;5056127;28;20025;-73
2021/10/28 03:14:16;;;;;;;20.00;12.32;;;;;;;;;;5055804;28;20021;-73
2021/10/28 03:16:57;;;;;;;24.15;14.10;;;;;;;;;;5055436;28;20025;-73
2021/10/28 03:27:26;;;;;;;33.20;17.13;;;;;;;;;;5055874;28;20047;-73
2021/10/28 03:29:52;;;;;;;34.58;18.30;;;;;;;;;;5055269;28;20032;-73
2021/10/28 03:32:20;;;;;;;42.92;20.92;;;;;;;;;;5055438;28;20358;-72
2021/10/28 03:34:48;;;;;;;37.65;20.75;;;;;;;;;;5055390;28;20021;-72
2021/10/28 03:37:18;;;;;;;44.20;22.58;;;;;;;;;;5055035;28;20025;-73
2021/10/28 04:31:00;;;;;;;28.45;19.20;;;;;;;;;;5054335;28;20451;-72
2021/10/28 04:33:27;;;;;;;33.30;21.50;;;;;;;;;;5054036;28;20029;-72
2021/10/28 04:35:53;;;;;;;42.63;26.05;;;;;;;;;;5054313;28;20432;-72
2021/10/28 04:38:20;;;;;;;65.05;31.88;;;;;;;;;;5054316;28;20021;-72
2021/10/28 04:40:46;;;;;;;59.40;32.40;;;;;;;;;;5053868;28;20023;-72
2021/10/28 04:43:12;;;;;;;52.55;30.45;;;;;;;;;;5054232;28;20032;-73
2021/10/28 04:45:38;;;;;;;57.05;34.03;;;;;;;;;;5054132;28;20024;-72
2021/10/28 04:48:05;;;;;;;57.67;33.03;;;;;;;;;;5053706;28;20041;-73
2021/10/28 04:50:32;;;;;;;48.17;28.83;;;;;;;;;;5053137;28;20025;-73
2021/10/28 04:52:58;;;;;;;45.63;26.27;;;;;;;;;;5054228;28;20489;-72
2021/10/28 04:55:24;;;;;;;45.30;25.23;;;;;;;;;;5053590;28;20046;-72
2021/10/28 04:57:50;;;;;;;42.38;28.02;;;;;;;;;;5053818;28;20028;-73
2021/10/28 05:00:16;;;;;;;41.17;24.65;;;;;;;;;;5054125;28;20052;-72
2021/10/28 05:02:43;;;;;;;42.55;27.52;;;;;;;;;;5053508;28;20024;-73
2021/10/28 05:05:09;;;;;;;52.33;30.98;;;;;;;;;;5053961;28;20024;-72
2021/10/28 05:07:35;;;;;;;59.80;33.15;;;;;;;;;;5053527;28;20124;-73
2021/10/28 05:10:03;;;;;;;52.13;28.15;;;;;;;;;;5051596;28;20070;-71
2021/10/28 05:12:29;;;;;;;60.90;31.20;;;;;;;;;;5051621;28;20112;-72
2021/10/28 05:14:55;;;;;;;68.72;36.65;;;;;;;;;;5052671;28;20354;-72
2021/10/28 05:17:22;;;;;;;73.18;36.67;;;;;;;;;;5053679;28;20381;-74
2021/10/28 05:19:48;;;;;;;70.63;37.83;;;;;;;;;;5053064;28;20416;-73
2021/10/28 05:22:15;;;;;;;70.03;34.72;;;;;;;;;;5053329;28;20501;-72
2021/10/28 05:24:41;;;;;;;75.18;37.38;;;;;;;;;;5053324;28;20079;-71
2021/10/28 05:27:07;;;;;;;61.67;32.97;;;;;;;;;;5052038;28;20119;-73
2021/10/28 05:29:33;;;;;;;55.30;30.20;;;;;;;;;;5053996;28;20099;-73
2021/10/28 05:32:02;;;;;;;53.33;28.52;;;;;;;;;;5053226;28;20535;-71
2021/10/28 05:34:28;;;;;;;46.88;26.70;;;;;;;;;;5052278;28;20025;-73
2021/10/28 05:36:55;;;;;;;47.17;27.15;;;;;;;;;;5031020;28;20024;-72
2021/10/28 05:39:21;;;;;;;37.65;24.40;;;;;;;;;;5050977;28;20477;-71
2021/10/28 05:41:48;;;;;;;35.63;23.27;;;;;;;;;;5042349;28;20028;-71
2021/10/28 05:44:18;;;;;;;39.55;23.25;;;;;;;;;;5032678;28;20023;-73
2021/10/28 05:46:44;;;;;;;41.85;24.67;;;;;;;;;;5050701;28;20072;-73
2021/10/28 05:49:11;;;;;;;45.55;29.55;;;;;;;;;;5052069;28;20029;-71
2021/10/28 05:51:38;;;;;;;44.80;28.38;;;;;;;;;;5052296;28;20029;-72
2021/10/28 05:54:04;;;;;;;65.78;41.60;;;;;;;;;;5052105;28;20496;-70
2021/10/28 05:56:30;;;;;;;94.93;55.55;;;;;;;;;;5046500;28;20035;-72
2021/10/28 05:58:57;;;;;;;80.80;49.53;;;;;;;;;;5050266;28;20033;-70
2021/10/28 06:01:24;;;;;;;92.03;52.35;;;;;;;;;;5048237;28;20052;-71
2021/10/28 06:03:50;;;;;;;106.72;52.22;;;;;;;;;;5050861;28;20029;-73
2021/10/28 06:06:18;;;;;;;56.15;34.42;;;;;;;;;;5045674;28;20056;-71
2021/10/28 06:08:46;;;;;;;43.00;28.73;;;;;;;;;;5023492;28;20029;-71
2021/10/28 06:11:16;;;;;;;81.07;43.63;;;;;;;;;;5047628;28;20389;-70
2021/10/28 06:13:46;;;;;;;82.93;44.10;;;;;;;;;;5031713;28;20025;-71
2021/10/28 06:16:16;;;;;;;87.30;51.85;;;;;;;;;;5050816;28;20484;-71
2021/10/28 06:18:43;;;;;;;102.30;65.97;;;;;;;;;;5050742;28;20116;-72
2021/10/28 06:21:11;;;;;;;66.85;42.63;;;;;;;;;;5026282;28;20009;-72
2021/10/28 06:23:38;;;;;;;64.75;38.95;;;;;;;;;;5051665;28;20029;-69
2021/10/28 06:26:04;;;;;;;45.85;29.35;;;;;;;;;;5051442;28;20078;-70
2021/10/28 06:28:31;;;;;;;38.33;23.70;;;;;;;;;;5051240;28;20029;-70
2021/10/28 06:30:57;;;;;;;42.05;25.00;;;;;;;;;;5032954;28;20074;-69
2021/10/28 06:33:29;;;;;;;48.33;29.30;;;;;;;;;;5049878;28;20028;-71
2021/10/28 06:35:57;;;;;;;40.03;24.38;;;;;;;;;;5050640;28;20485;-73
2021/10/28 06:38:23;;;;;;;41.13;25.90;;;;;;;;;;5051751;28;20032;-70
2021/10/28 06:40:50;;;;;;;39.67;25.17;;;;;;;;;;5051500;28;20094;-72
2021/10/28 06:43:16;;;;;;;36.67;24.80;;;;;;;;;;5049767;28;20381;-71
2021/10/28 06:45:42;;;;;;;37.65;23.55;;;;;;;;;;5051164;28;20028;-71
2021/10/28 06:48:08;;;;;;;48.35;24.13;;;;;;;;;;5051306;28;20138;-70
2021/10/28 06:50:55;;;;;;;35.58;23.08;;;;;;;;;;5051169;28;20116;-71
2021/10/28 06:53:24;;;;;;;41.22;24.42;;;;;;;;;;5031408;28;20035;-72
2021/10/28 06:56:04;;;;;;;42.03;22.92;;;;;;;;;;5046795;28;20013;-74
2021/10/28 07:04:01;;;;;;;49.83;29.60;;;;;;;;;;5049208;28;20155;-71
2021/10/28 07:06:28;;;;;;;33.92;22.85;;;;;;;;;;5050989;28;20056;-72
2021/10/28 07:09:00;;;;;;;46.95;26.58;;;;;;;;;;5032252;28;20028;-73
2021/10/28 07:11:31;;;;;;;46.05;25.67;;;;;;;;;;5034125;28;20028;-73
2021/10/28 07:13:59;;;;;;;41.10;26.80;;;;;;;;;;5052569;28;20480;-72
2021/10/28 07:19:07;;;;;;;31.77;21.70;;;;;;;;;;5054562;28;20024;-73
2021/10/28 07:22:26;;;;;;;33.70;20.77;;;;;;;;;;5023752;28;20033;-73
2021/10/28 07:24:37;;;;;;;37.38;22.65;;;;;;;;;;5033214;28;20044;-73
2021/10/28 07:32:23;;;;;;;27.05;18.65;;;;;;;;;;5049833;28;20144;-71
2021/10/28 08:15:46;;;;;;;22.90;15.30;;;;;;;;;;5040174;28;20446;-72
2021/10/28 08:28:41;;;;;;;25.73;16.25;;;;;;;;;;5053709;28;20554;-72
2021/10/28 08:31:07;;;;;;;31.83;19.15;;;;;;;;;;5053921;28;20033;-72
2021/10/28 08:33:49;;;;;;;23.25;16.08;;;;;;;;;;5109861;27;20392;-73
2021/10/28 08:36:31;;;;;;;30.40;15.95;;;;;;;;;;5110221;28;20042;-72
2021/10/28 08:39:11;;;;;;;29.27;17.33;;;;;;;;;;5109224;27;20458;-73
2021/10/28 08:42:09;;;;;;;26.23;16.52;;;;;;;;;;5110219;27;20450;-73
2021/10/28 08:48:01;;;;;;;19.80;13.77;;;;;;;;;;5107850;27;20442;-73
2021/10/28 08:51:21;;;;;;;28.23;18.48;;;;;;;;;;5108238;27;20542;-73
2021/10/28 09:23:55;;;;;;;23.67;18.25;;;;;;;;;;5108131;27;20773;-74
2021/10/28 09:26:38;;;;;;;21.02;14.95;;;;;;;;;;5108510;28;20031;-74
2021/10/28 09:30:00;;;;;;;16.85;11.05;;;;;;;;;;5107948;28;20016;-71
2021/10/28 09:33:08;;;;;;;19.83;12.77;;;;;;;;;;5117632;27;20395;-74
2021/10/28 09:50:09;;;;;;;21.83;14.63;;;;;;;;;;5109769;27;20389;-74
2021/10/28 10:00:17;;;;;;;15.38;10.05;;;;;;;;;;5110104;28;20132;-73
2021/10/28 10:03:41;;;;;;;19.70;11.23;;;;;;;;;;5048343;28;20459;-72
2021/10/28 10:06:14;;;;;;;17.73;11.32;;;;;;;;;;5049592;28;20493;-75
2021/10/28 10:10:15;;;;;;;14.63;9.50;;;;;;;;;;5087874;27;20386;-73
2021/10/28 10:13:41;;;;;;;17.45;11.80;;;;;;;;;;5067389;28;20453;-74
2021/10/28 10:18:39;;;;;;;12.73;8.82;;;;;;;;;;5068905;27;20426;-74
2021/10/28 10:21:41;;;;;;;13.07;8.82;;;;;;;;;;5068029;28;20029;-73
2021/10/28 10:30:26;;;;;;;12.00;6.65;;;;;;;;;;5068288;28;20059;-72
2021/10/28 11:30:31;;;;;;;16.98;10.85;;;;;;;;;;5121627;27;20120;-78
2021/10/28 12:15:52;;;;;;;12.43;7.85;;;;;;;;;;5092701;28;20125;-74
2021/10/28 12:20:53;;;;;;;10.48;7.10;;;;;;;;;;5090386;28;20472;-77
2021/10/28 12:46:11;;;;;;;9.38;5.50;;;;;;;;;;5109729;28;20031;-75
2021/10/28 12:51:49;;;;;;;8.93;5.82;;;;;;;;;;5086557;28;20448;-74
2021/10/28 13:02:17;;;;;;;10.30;5.60;;;;;;;;;;5108134;28;20063;-78
2021/10/28 14:25:47;;;;;;;13.20;7.70;;;;;;;;;;5074849;28;20102;-76
2021/10/28 15:30:14;;;;;;;77.82;58.25;;;;;;;;;;5110861;28;20027;-75
2021/10/28 15:36:16;;;;;;;80.97;55.47;;;;;;;;;;5090313;28;20431;-76
2021/10/28 15:59:01;;;;;;;92.10;52.83;;;;;;;;;;5068409;28;20395;-76
2021/10/28 16:21:55;;;;;;;140.23;89.32;;;;;;;;;;5110900;28;20027;-75
2021/10/28 16:24:26;;;;;;;118.88;74.88;;;;;;;;;;5110706;28;20369;-74
2021/10/28 16:27:35;;;;;;;118.22;69.70;;;;;;;;;;5050714;28;20447;-75
2021/10/28 16:32:15;;;;;;;139.93;83.05;;;;;;;;;;5110634;27;20953;-75
2021/10/28 16:36:51;;;;;;;96.70;63.95;;;;;;;;;;5070551;28;20457;-75
2021/10/28 16:40:31;;;;;;;93.57;64.82;;;;;;;;;;5111400;27;20454;-75
2021/10/28 16:42:57;;;;;;;91.53;59.67;;;;;;;;;;5111109;28;20055;-75
2021/10/28 16:45:24;;;;;;;87.30;58.15;;;;;;;;;;5110475;28;20091;-76
2021/10/28 16:47:50;;;;;;;91.90;60.47;;;;;;;;;;5110888;28;20032;-76
2021/10/28 16:50:16;;;;;;;96.25;57.45;;;;;;;;;;5110691;28;20058;-76
2021/10/28 16:53:21;;;;;;;78.72;51.85;;;;;;;;;;5110704;27;20453;-75
2021/10/28 16:58:19;;;;;;;77.55;46.05;;;;;;;;;;5111050;27;20388;-74
2021/10/28 17:01:25;;;;;;;75.38;49.03;;;;;;;;;;5111083;27;20388;-74
2021/10/28 17:03:52;;;;;;;69.28;44.40;;;;;;;;;;5110818;28;20048;-75
2021/10/28 17:06:20;;;;;;;62.75;40.03;;;;;;;;;;5110427;28;20019;-76
2021/10/28 17:08:46;;;;;;;50.38;34.58;;;;;;;;;;5111013;28;20058;-75
2021/10/28 17:11:13;;;;;;;49.15;32.67;;;;;;;;;;5110689;28;20483;-75
2021/10/28 17:14:15;;;;;;;60.17;41.90;;;;;;;;;;5101567;27;1516062;-75
2021/10/28 17:17:44;;;;;;;78.40;52.40;;;;;;;;;;5111175;27;20412;-76
2021/10/28 17:21:38;;;;;;;64.30;42.45;;;;;;;;;;5110487;27;20389;-75
2021/10/28 17:24:07;;;;;;;55.00;38.55;;;;;;;;;;5110878;28;20107;-75
2021/10/28 17:26:45;;;;;;;71.00;45.83;;;;;;;;;;5110822;27;20385;-76
2021/10/28 17:29:12;;;;;;;74.10;49.10;;;;;;;;;;5109635;28;20024;-75
2021/10/28 17:31:38;;;;;;;63.85;41.75;;;;;;;;;;5110726;28;20020;-74
2021/10/28 17:34:05;;;;;;;54.92;36.13;;;;;;;;;;5110481;28;20027;-76
2021/10/28 17:36:31;;;;;;;52.90;34.80;;;;;;;;;;5110884;28;20469;-75
2021/10/28 17:38:58;;;;;;;58.00;36.47;;;;;;;;;;5110685;28;20024;-75
2021/10/28 17:41:24;;;;;;;52.15;32.00;;;;;;;;;;5110293;28;20020;-75
2021/10/28 17:43:53;;;;;;;44.03;28.85;;;;;;;;;;5110613;28;20065;-75
2021/10/28 17:46:20;;;;;;;53.13;32.83;;;;;;;;;;5110462;28;20055;-76
2021/10/28 17:48:49;;;;;;;68.78;42.08;;;;;;;;;;5110141;28;20027;-75
2021/10/28 17:51:16;;;;;;;75.80;48.08;;;;;;;;;;5110486;28;20016;-75
2021/10/28 17:53:44;;;;;;;53.60;37.28;;;;;;;;;;5109169;28;20468;-76
2021/10/28 17:56:11;;;;;;;69.85;44.05;;;;;;;;;;5110018;28;20491;-76
2021/10/28 17:58:38;;;;;;;71.85;47.25;;;;;;;;;;5110382;28;20020;-75
2021/10/28 18:01:04;;;;;;;76.88;52.35;;;;;;;;;;5110335;28;20024;-76
2021/10/28 18:03:31;;;;;;;70.82;48.53;;;;;;;;;;5109806;28;20031;-76
2021/10/28 18:05:58;;;;;;;62.15;41.55;;;;;;;;;;5109979;28;20089;-76
2021/10/28 18:08:24;;;;;;;82.50;47.95;;;;;;;;;;5110228;28;20027;-76
2021/10/28 18:10:50;;;;;;;56.28;36.83;;;;;;;;;;5109799;28;20045;-76
2021/10/28 18:13:18;;;;;;;58.33;33.97;;;;;;;;;;5110322;28;20091;-75
2021/10/28 18:15:44;;;;;;;61.17;35.83;;;;;;;;;;5108423;28;20089;-76
2021/10/28 18:18:10;;;;;;;52.08;33.90;;;;;;;;;;5109991;28;20091;-75
2021/10/28 18:20:37;;;;;;;60.97;34.50;;;;;;;;;;5109846;28;20020;-75
2021/10/28 18:23:04;;;;;;;58.38;32.33;;;;;;;;;;5109482;28;20027;-74
2021/10/28 18:25:30;;;;;;;45.85;27.85;;;;;;;;;;5109515;28;20454;-75
2021/10/28 18:27:56;;;;;;;33.55;22.35;;;;;;;;;;5108466;28;20466;-75
2021/10/28 18:30:24;;;;;;;30.40;20.38;;;;;;;;;;5109537;28;20020;-76
2021/10/28 18:32:50;;;;;;;33.05;21.40;;;;;;;;;;5109684;28;20087;-78
2021/10/28 18:35:17;;;;;;;34.67;24.13;;;;;;;;;;5109663;28;20120;-73
2021/10/28 18:37:44;;;;;;;31.95;21.38;;;;;;;;;;5097908;28;20141;-78
2021/10/28 18:40:11;;;;;;;38.15;26.95;;;;;;;;;;5096118;28;20024;-76
2021/10/28 18:42:37;;;;;;;56.22;34.30;;;;;;;;;;5096327;28;20444;-76
2021/10/28 18:45:05;;;;;;;39.65;24.42;;;;;;;;;;5095551;28;20024;-74
2021/10/28 18:47:32;;;;;;;30.65;21.60;;;;;;;;;;5095794;28;20099;-76
2021/10/28 18:49:58;;;;;;;26.67;18.17;;;;;;;;;;5096386;28;20028;-77
2021/10/28 18:52:25;;;;;;;30.00;20.77;;;;;;;;;;5095359;28;20024;-77
2021/10/28 18:54:52;;;;;;;58.95;38.13;;;;;;;;;;5095449;28;20073;-77
2021/10/28 18:57:18;;;;;;;62.00;41.92;;;;;;;;;;5095329;28;20024;-77
2021/10/28 18:59:48;;;;;;;65.82;40.83;;;;;;;;;;5094994;28;20028;-77
2021/10/28 19:02:14;;;;;;;63.65;43.60;;;;;;;;;;5095534;28;20017;-75
2021/10/28 19:04:40;;;;;;;71.55;44.40;;;;;;;;;;5096498;28;20531;-75
2021/10/28 19:07:06;;;;;;;57.00;37.95;;;;;;;;;;5095150;28;20036;-74
2021/10/28 19:09:33;;;;;;;43.70;27.55;;;;;;;;;;5095419;28;20032;-76
2021/10/28 19:12:00;;;;;;;38.22;26.52;;;;;;;;;;5095098;28;20024;-78
2021/10/28 19:14:26;;;;;;;40.13;23.80;;;;;;;;;;5095457;28;20031;-75
2021/10/28 19:16:52;;;;;;;30.80;20.00;;;;;;;;;;5095419;28;20032;-75
2021/10/28 19:19:19;;;;;;;36.33;23.73;;;;;;;;;;5095002;28;20024;-76
2021/10/28 19:21:45;;;;;;;39.42;26.45;;;;;;;;;;5095199;28;20038;-75
2021/10/28 19:24:11;;;;;;;56.70;34.95;;;;;;;;;;5095326;28;20040;-77
2021/10/28 19:26:38;;;;;;;68.22;48.45;;;;;;;;;;5094447;28;20044;-76
2021/10/28 19:29:06;;;;;;;63.92;42.15;;;;;;;;;;5095157;28;20535;-75
2021/10/28 19:32:20;;;;;;;62.88;42.60;;;;;;;;;;5094982;28;20032;-75
2021/10/28 19:34:28;;;;;;;53.88;35.78;;;;;;;;;;5091473;28;20024;-75
2021/10/28 19:47:17;;;;;;;82.82;52.38;;;;;;;;;;5094603;28;20047;-76
2021/10/28 19:49:43;;;;;;;87.60;54.55;;;;;;;;;;5093914;28;20020;-77
2021/10/28 19:52:12;;;;;;;73.97;47.42;;;;;;;;;;5094747;28;20455;-75
2021/10/28 19:54:39;;;;;;;67.45;44.47;;;;;;;;;;5094265;28;20527;-75
2021/10/28 19:57:11;;;;;;;95.03;57.88;;;;;;;;;;5094534;28;20020;-77
2021/10/28 19:59:44;;;;;;;68.90;42.80;;;;;;;;;;5094532;28;20016;-76
2021/10/28 20:02:18;;;;;;;55.70;35.58;;;;;;;;;;5094469;28;20020;-76
2021/10/28 20:05:03;;;;;;;50.85;33.30;;;;;;;;;;5094385;28;20030;-76
2021/10/28 20:08:18;;;;;;;65.38;38.08;;;;;;;;;;5094340;28;20500;-76
2021/10/28 20:13:35;;;;;;;69.13;41.95;;;;;;;;;;5094467;28;20043;-78
2021/10/28 20:21:26;;;;;;;41.67;28.05;;;;;;;;;;5094069;28;20042;-75
2021/10/28 20:23:52;;;;;;;31.92;23.13;;;;;;;;;;5093620;28;20115;-76
2021/10/28 20:26:18;;;;;;;36.65;21.20;;;;;;;;;;5093790;28;20048;-77
2021/10/28 20:28:48;;;;;;;42.28;23.92;;;;;;;;;;5094281;28;20095;-77
2021/10/28 20:31:17;;;;;;;45.70;24.90;;;;;;;;;;5093499;28;20024;-76
2021/10/28 20:34:04;;;;;;;41.10;22.90;;;;;;;;;;5093796;28;20023;-76
2021/10/28 20:39:17;;;;;;;46.35;27.65;;;;;;;;;;5093718;28;20510;-76
2021/10/28 20:41:44;;;;;;;61.38;32.63;;;;;;;;;;5093642;28;20024;-74
2021/10/28 20:44:10;;;;;;;43.95;25.75;;;;;;;;;;5093229;28;20031;-77
2021/10/28 20:46:36;;;;;;;35.60;22.92;;;;;;;;;;5093439;28;20064;-77
2021/10/28 20:49:03;;;;;;;39.75;23.13;;;;;;;;;;5092246;28;20051;-76
2021/10/28 20:51:29;;;;;;;39.75;23.60;;;;;;;;;;5093414;28;20024;-77
2021/10/28 20:53:56;;;;;;;43.72;23.63;;;;;;;;;;5093550;28;20020;-77
2021/10/28 20:56:26;;;;;;;34.67;20.77;;;;;;;;;;5092113;28;20399;-76
2021/10/28 20:58:53;;;;;;;35.38;22.08;;;;;;;;;;5093124;28;20020;-77
2021/10/28 21:01:19;;;;;;;37.75;23.98;;;;;;;;;;5093163;28;20096;-76
2021/10/28 21:03:45;;;;;;;36.90;22.63;;;;;;;;;;5093386;28;20523;-77
2021/10/28 21:06:11;;;;;;;31.35;20.38;;;;;;;;;;5092959;28;20489;-77
2021/10/28 21:08:38;;;;;;;31.20;18.25;;;;;;;;;;5093505;28;20074;-77
2021/10/28 21:11:04;;;;;;;31.95;19.15;;;;;;;;;;5093222;28;20032;-76
2021/10/28 21:13:30;;;;;;;24.63;16.70;;;;;;;;;;5093042;28;20081;-76
2021/10/28 21:15:56;;;;;;;27.95;17.10;;;;;;;;;;5093310;28;20020;-76
2021/10/28 21:18:23;;;;;;;34.53;21.98;;;;;;;;;;5093230;28;20024;-75
2021/10/28 21:20:49;;;;;;;44.58;27.05;;;;;;;;;;5092708;28;20024;-76
2021/10/28 21:23:15;;;;;;;48.35;28.70;;;;;;;;;;5093051;28;20142;-75
2021/10/28 21:25:41;;;;;;;49.03;26.92;;;;;;;;;;5092655;28;20453;-76
2021/10/28 21:28:07;;;;;;;63.53;33.17;;;;;;;;;;5093088;28;20392;-76
2021/10/28 21:30:34;;;;;;;56.03;32.88;;;;;;;;;;5093308;28;20472;-75
2021/10/28 21:33:00;;;;;;;63.78;36.90;;;;;;;;;;5092627;28;20024;-75
2021/10/28 21:35:26;;;;;;;67.50;35.67;;;;;;;;;;5093022;28;20475;-75
2021/10/28 21:37:52;;;;;;;56.90;32.42;;;;;;;;;;5093108;28;20028;-76
2021/10/28 21:40:19;;;;;;;38.33;24.55;;;;;;;;;;5092766;28;20099;-75
2021/10/28 21:42:45;;;;;;;32.42;19.35;;;;;;;;;;5092952;28;20146;-75
2021/10/28 21:45:14;;;;;;;38.08;21.38;;;;;;;;;;5093077;28;20035;-73
2021/10/28 21:47:43;;;;;;;38.33;20.67;;;;;;;;;;5092575;28;20020;-74
2021/10/28 21:50:10;;;;;;;35.40;20.08;;;;;;;;;;5092839;28;20044;-74
2021/10/28 21:52:43;;;;;;;28.42;17.98;;;;;;;;;;5093405;28;20475;-75
2021/10/28 21:55:23;;;;;;;30.40;18.75;;;;;;;;;;5092408;28;20024;-75
2021/10/28 21:58:05;;;;;;;24.02;16.75;;;;;;;;;;5092986;28;20480;-76
2021/10/28 22:03:31;;;;;;;26.02;15.63;;;;;;;;;;5092410;28;20020;-76
2021/10/28 22:25:47;;;;;;;28.20;17.05;;;;;;;;;;5096477;28;20059;-75
2021/10/28 22:28:13;;;;;;;27.92;16.98;;;;;;;;;;5096286;28;20016;-74
2021/10/28 22:30:40;;;;;;;26.95;15.77;;;;;;;;;;5095899;28;20028;-75
2021/10/28 22:33:06;;;;;;;26.98;16.15;;;;;;;;;;5096149;28;20032;-75
2021/10/28 22:35:43;;;;;;;43.30;21.95;;;;;;;;;;5096282;28;20051;-74
2021/10/28 22:38:11;;;;;;;41.67;22.85;;;;;;;;;;5095834;28;20012;-75
2021/10/28 22:40:41;;;;;;;34.75;19.20;;;;;;;;;;5096532;28;20022;-74
2021/10/28 22:43:13;;;;;;;30.83;18.90;;;;;;;;;;5095694;28;20020;-74
2021/10/28 22:45:41;;;;;;;35.55;20.27;;;;;;;;;;5095872;28;20032;-74
2021/10/28 22:48:07;;;;;;;40.00;22.70;;;;;;;;;;5096271;28;20103;-75
2021/10/28 22:50:34;;;;;;;31.42;17.98;;;;;;;;;;5095836;28;20411;-75
2021/10/28 22:53:01;;;;;;;28.75;15.18;;;;;;;;;;5095771;28;20020;-74
2021/10/28 22:55:33;;;;;;;24.38;14.52;;;;;;;;;;5095727;28;20028;-75
2021/10/28 22:58:16;;;;;;;21.40;13.02;;;;;;;;;;5095659;28;20486;-75
2021/10/28 23:14:13;;;;;;;21.33;12.30;;;;;;;;;;5095553;28;20039;-75
2021/10/28 23:16:49;;;;;;;21.00;13.33;;;;;;;;;;5094086;28;20392;-76
2021/10/28 23:22:00;;;;;;;20.55;13.75;;;;;;;;;;5095555;28;20074;-75
2021/10/28 23:24:27;;;;;;;26.50;16.48;;;;;;;;;;5094867;28;20103;-75
2021/10/28 23:26:53;;;;;;;24.70;15.40;;;;;;;;;;5093572;28;20126;-75
2021/10/28 23:29:19;;;;;;;26.27;16.02;;;;;;;;;;5095159;28;20023;-74
2021/10/28 23:31:45;;;;;;;26.80;17.13;;;;;;;;;;5095014;28;20031;-76
2021/10/28 23:34:12;;;;;;;28.08;17.25;;;;;;;;;;5094636;28;20028;-75
2021/10/28 23:36:38;;;;;;;26.98;16.60;;;;;;;;;;5094912;28;20081;-75
2021/10/28 23:39:05;;;;;;;23.10;15.05;;;;;;;;;;5094538;28;20023;-75
2021/10/28 23:41:31;;;;;;;32.40;18.17;;;;;;;;;;5093589;28;20024;-75
2021/10/28 23:43:58;;;;;;;40.10;22.65;;;;;;;;;;5094978;28;20031;-75
2021/10/28 23:46:24;;;;;;;38.38;19.58;;;;;;;;;;5094314;28;20028;-75
2021/10/28 23:48:51;;;;;;;32.15;19.95;;;;;;;;;;5094779;28;20044;-76
2021/10/28 23:51:17;;;;;;;31.83;17.55;;;;;;;;;;5093423;28;20024;-76
2021/10/28 23:53:43;;;;;;;21.50;14.50;;;;;;;;;;5092954;28;20111;-76
2021/10/28 23:56:09;;;;;;;25.13;15.32;;;;;;;;;;5094562;28;20028;-75
2021/10/28 23:58:35;;;;;;;27.95;16.65;;;;;;;;;;5094505;28;20472;-76
